Time;durP1;ratioP1;P1;durP2;ratioP2;P2;SDS_P1;SDS_P2;PMS_P1;PMS_P2;Temp;Humidity;BMP_temperature;BMP_pressure;BME280_temperature;BME280_humidity;BME280_pressure;Samples;Min_cycle;Max_cycle;Signal;HPM_P1;HPM_P2
2022/04/14 00:00:23;;;;;;;6.97;3.50;;;12.60;99.90;;;;;;4981362;28;20191;-32
2022/04/14 00:02:50;;;;;;;10.00;3.63;;;12.50;99.90;;;;;;4997739;28;20181;-32
2022/04/14 00:05:16;;;;;;;8.73;3.83;;;12.50;99.90;;;;;;4997277;28;20201;-32
2022/04/14 00:07:44;;;;;;;5.90;3.37;;;12.50;99.90;;;;;;4981116;28;20547;-32
2022/04/14 00:10:14;;;;;;;8.87;3.80;;;12.50;99.90;;;;;;5001796;28;20226;-32
2022/04/14 00:12:40;;;;;;;8.43;4.47;;;12.40;99.90;;;;;;5000425;28;20183;-31
2022/04/14 00:15:07;;;;;;;7.77;3.90;;;12.40;99.90;;;;;;5016597;28;20193;-32
2022/04/14 00:17:33;;;;;;;8.07;3.83;;;12.20;99.90;;;;;;5016043;28;20181;-32
2022/04/14 00:20:01;;;;;;;6.83;4.30;;;12.00;99.90;;;;;;5032614;28;20192;-31
2022/04/14 00:22:26;;;;;;;10.20;4.20;;;12.00;99.90;;;;;;5016564;28;20243;-32
2022/04/14 00:24:52;;;;;;;8.87;4.17;;;12.00;99.90;;;;;;5034504;28;20195;-31
2022/04/14 00:27:19;;;;;;;10.30;4.70;;;12.00;99.90;;;;;;5033992;28;20226;-32
2022/04/14 00:29:46;;;;;;;8.57;4.37;;;12.00;99.90;;;;;;5000457;28;20207;-32
2022/04/14 00:32:12;;;;;;;9.73;4.00;;;12.00;99.90;;;;;;4996006;28;20234;-31
2022/04/14 00:34:38;;;;;;;7.47;3.93;;;12.00;99.90;;;;;;4996526;28;20202;-32
2022/04/14 00:37:04;;;;;;;8.77;4.00;;;12.00;99.90;;;;;;4996845;28;20188;-31
2022/04/14 00:39:30;;;;;;;5.77;3.83;;;11.90;99.90;;;;;;5014248;28;20264;-32
2022/04/14 00:41:55;;;;;;;8.87;4.40;;;11.80;99.90;;;;;;5005064;28;20237;-32
2022/04/14 00:44:21;;;;;;;9.90;3.93;;;11.70;99.90;;;;;;5015798;28;20271;-32
2022/04/14 00:46:47;;;;;;;8.37;4.13;;;11.60;99.90;;;;;;5016103;28;20321;-32
2022/04/14 00:49:13;;;;;;;8.07;4.30;;;11.50;99.90;;;;;;5033362;28;20214;-32
2022/04/14 00:51:39;;;;;;;7.43;4.80;;;11.40;99.90;;;;;;5016142;28;20195;-32
2022/04/14 00:54:05;;;;;;;7.27;4.10;;;11.40;99.90;;;;;;5015907;28;20241;-31
2022/04/14 00:56:30;;;;;;;8.33;4.00;;;11.40;99.90;;;;;;4999648;28;20182;-31
2022/04/14 00:58:56;;;;;;;6.50;3.83;;;11.30;99.90;;;;;;4993691;28;20179;-31
2022/04/14 01:01:22;;;;;;;8.47;3.70;;;11.40;99.90;;;;;;4999124;28;20179;-31
2022/04/14 01:03:51;;;;;;;9.97;4.43;;;11.40;99.90;;;;;;5015625;28;20210;-32
2022/04/14 01:06:23;;;;;;;6.83;3.97;;;11.30;99.90;;;;;;5015902;28;20202;-32
2022/04/14 01:11:36;;;;;;;6.37;3.77;;;11.30;99.90;;;;;;5033171;28;20178;-32
2022/04/14 01:14:02;;;;;;;6.97;3.77;;;11.30;99.90;;;;;;5015176;28;20222;-31
2022/04/14 01:16:28;;;;;;;12.17;4.03;;;11.30;99.90;;;;;;4999317;28;20183;-30
2022/04/14 01:18:53;;;;;;;7.80;3.50;;;11.40;99.90;;;;;;5015474;28;20185;-32
2022/04/14 01:21:21;;;;;;;7.10;3.80;;;11.40;99.90;;;;;;4999253;28;20186;-32
2022/04/14 01:23:48;;;;;;;8.30;3.80;;;11.30;99.90;;;;;;4998842;28;20202;-32
2022/04/14 01:26:14;;;;;;;7.57;3.77;;;11.30;99.90;;;;;;4998673;28;20180;-31
2022/04/14 01:28:40;;;;;;;8.60;3.80;;;11.30;99.90;;;;;;5008404;28;20192;-31
2022/04/14 01:31:06;;;;;;;9.73;3.53;;;11.30;99.90;;;;;;4978884;28;20262;-31
2022/04/14 01:33:32;;;;;;;8.70;4.10;;;11.30;99.90;;;;;;4989271;28;20199;-31
2022/04/14 01:35:58;;;;;;;8.83;3.40;;;11.30;99.90;;;;;;5015033;28;20187;-31
2022/04/14 01:38:23;;;;;;;9.93;3.87;;;11.40;99.90;;;;;;5014952;28;20174;-31
2022/04/14 01:40:49;;;;;;;8.10;3.50;;;11.40;99.90;;;;;;5014108;28;20240;-31
2022/04/14 01:43:15;;;;;;;8.17;3.30;;;11.30;99.90;;;;;;4998278;28;20198;-30
2022/04/14 01:45:46;;;;;;;11.37;3.90;;;11.30;99.90;;;;;;5014965;28;20205;-31
2022/04/14 01:48:12;;;;;;;7.67;3.80;;;11.30;99.90;;;;;;5015060;28;20185;-31
2022/04/14 01:50:38;;;;;;;8.43;3.80;;;11.30;99.90;;;;;;5014555;28;20206;-31
2022/04/14 01:53:04;;;;;;;7.83;4.00;;;11.30;99.90;;;;;;5014523;28;20175;-31
2022/04/14 01:55:29;;;;;;;6.33;3.77;;;11.30;99.90;;;;;;5013837;28;20222;-31
2022/04/14 01:57:55;;;;;;;7.37;3.83;;;11.30;99.90;;;;;;4998113;28;20181;-31
2022/04/14 02:00:21;;;;;;;6.67;3.90;;;11.30;99.90;;;;;;5012662;28;20172;-31
2022/04/14 02:02:47;;;;;;;10.00;3.87;;;11.40;99.90;;;;;;4998207;28;20188;-31
2022/04/14 02:05:13;;;;;;;6.27;3.77;;;11.40;99.90;;;;;;5015403;28;20273;-32
2022/04/14 02:07:38;;;;;;;8.53;4.13;;;11.40;99.90;;;;;;5016160;28;20177;-32
2022/04/14 02:10:05;;;;;;;9.13;4.00;;;11.30;99.90;;;;;;5015311;28;20198;-32
2022/04/14 02:12:32;;;;;;;7.83;3.83;;;11.30;99.90;;;;;;5015222;28;20265;-31
2022/04/14 02:14:58;;;;;;;10.27;3.80;;;11.20;99.90;;;;;;5014956;28;20204;-32
2022/04/14 02:17:23;;;;;;;8.00;3.47;;;11.00;99.90;;;;;;5015235;28;20185;-32
2022/04/14 02:19:49;;;;;;;8.00;3.57;;;11.00;99.90;;;;;;5032260;28;20175;-32
2022/04/14 02:22:15;;;;;;;11.07;4.20;;;11.10;99.90;;;;;;5014352;28;20178;-31
2022/04/14 02:24:41;;;;;;;10.50;4.20;;;11.10;99.90;;;;;;5014388;28;20230;-31
2022/04/14 02:27:07;;;;;;;7.33;3.83;;;11.00;99.90;;;;;;5014627;28;20224;-31
2022/04/14 02:29:34;;;;;;;7.97;3.80;;;11.00;99.90;;;;;;5010884;28;20199;-32
2022/04/14 02:32:00;;;;;;;7.43;3.97;;;11.00;99.90;;;;;;4994753;28;20262;-31
2022/04/14 02:34:26;;;;;;;6.97;3.73;;;10.90;99.90;;;;;;5001701;28;20205;-32
2022/04/14 02:36:52;;;;;;;5.87;3.87;;;10.80;99.90;;;;;;5032024;28;20183;-32
2022/04/14 02:39:18;;;;;;;9.43;4.03;;;10.80;99.90;;;;;;5013927;28;20257;-32
2022/04/14 02:41:45;;;;;;;8.93;4.20;;;10.80;99.90;;;;;;5014497;28;20174;-32
2022/04/14 02:44:11;;;;;;;6.80;4.10;;;10.80;99.90;;;;;;4997284;28;20206;-32
2022/04/14 02:46:37;;;;;;;6.83;4.03;;;10.90;99.90;;;;;;5014473;28;20179;-32
2022/04/14 02:49:03;;;;;;;8.00;3.80;;;10.90;99.90;;;;;;5013711;28;20179;-32
2022/04/14 02:51:29;;;;;;;8.80;4.00;;;10.80;99.90;;;;;;4998018;28;20182;-32
2022/04/14 02:53:55;;;;;;;7.57;4.00;;;10.70;99.90;;;;;;5019768;22;20270;-34
2022/04/14 02:56:20;;;;;;;9.70;3.93;;;10.50;99.90;;;;;;5013235;28;20175;-38
2022/04/14 02:58:46;;;;;;;8.47;3.53;;;10.30;99.90;;;;;;5013345;28;20186;-37
2022/04/14 03:01:12;;;;;;;8.20;4.07;;;10.10;99.90;;;;;;5032602;28;20184;-38
2022/04/14 03:03:38;;;;;;;7.70;3.93;;;9.90;99.90;;;;;;5013861;28;20178;-38
2022/04/14 03:06:04;;;;;;;8.40;3.97;;;9.90;99.90;;;;;;5013409;28;20189;-36
2022/04/14 03:08:30;;;;;;;7.50;3.87;;;10.00;99.90;;;;;;5013616;28;20228;-40
2022/04/14 03:10:56;;;;;;;9.43;4.47;;;10.00;99.90;;;;;;5013448;28;20252;-37
2022/04/14 03:13:22;;;;;;;7.43;3.97;;;10.10;99.90;;;;;;5031080;28;20206;-38
2022/04/14 03:15:49;;;;;;;6.50;3.60;;;10.10;99.90;;;;;;4997357;28;20221;-39
2022/04/14 03:18:15;;;;;;;6.13;3.80;;;10.20;99.90;;;;;;5013759;28;20178;-37
2022/04/14 03:20:42;;;;;;;9.00;4.13;;;10.30;99.90;;;;;;5013208;28;20198;-39
2022/04/14 03:23:08;;;;;;;7.80;4.03;;;10.30;99.90;;;;;;4997064;28;20196;-38
2022/04/14 03:25:33;;;;;;;4.63;3.33;;;10.30;99.90;;;;;;5013312;28;20289;-37
2022/04/14 03:27:59;;;;;;;10.23;3.97;;;10.30;99.90;;;;;;5013420;28;20654;-38
2022/04/14 03:30:25;;;;;;;9.60;4.27;;;10.30;99.90;;;;;;5013428;28;20210;-37
2022/04/14 03:32:51;;;;;;;9.20;3.53;;;10.30;99.90;;;;;;4993749;28;20222;-36
2022/04/14 03:35:17;;;;;;;10.67;4.37;;;10.20;99.90;;;;;;4993717;28;20195;-37
2022/04/14 03:37:43;;;;;;;7.30;3.97;;;10.20;99.90;;;;;;5009852;28;20183;-36
2022/04/14 03:40:10;;;;;;;7.90;3.97;;;10.10;99.90;;;;;;4992554;28;20181;-36
2022/04/14 03:42:36;;;;;;;10.60;4.17;;;10.10;99.90;;;;;;5013469;28;20190;-36
2022/04/14 03:45:04;;;;;;;7.17;3.80;;;10.10;99.90;;;;;;4996895;28;20205;-36
2022/04/14 03:47:29;;;;;;;8.40;4.13;;;10.00;99.90;;;;;;4996974;28;20182;-39
2022/04/14 03:49:55;;;;;;;8.10;3.80;;;10.00;99.90;;;;;;4996561;28;20264;-38
2022/04/14 03:52:21;;;;;;;6.47;4.13;;;9.90;99.90;;;;;;5012743;28;20270;-36
2022/04/14 03:54:47;;;;;;;6.20;4.43;;;9.70;99.90;;;;;;4997828;28;20238;-36
2022/04/14 03:57:13;;;;;;;5.67;4.07;;;9.70;99.90;;;;;;5017068;28;20190;-38
2022/04/14 03:59:39;;;;;;;9.67;4.30;;;9.50;99.90;;;;;;5000370;28;20205;-36
2022/04/14 04:02:05;;;;;;;7.70;4.27;;;9.30;99.90;;;;;;5000705;28;20237;-37
2022/04/14 04:04:32;;;;;;;9.70;4.83;;;9.30;99.90;;;;;;5016164;28;20210;-37
2022/04/14 04:06:58;;;;;;;6.53;4.10;;;9.30;99.90;;;;;;5016568;28;20654;-36
2022/04/14 04:09:26;;;;;;;9.70;4.23;;;9.30;99.90;;;;;;5016525;28;20217;-36
2022/04/14 04:11:53;;;;;;;8.27;4.30;;;9.40;99.90;;;;;;5016717;28;20181;-37
2022/04/14 04:14:20;;;;;;;7.67;4.30;;;9.40;99.90;;;;;;5016289;28;20205;-37
2022/04/14 04:16:47;;;;;;;7.77;4.47;;;9.40;99.90;;;;;;5034300;28;20175;-38
2022/04/14 04:19:13;;;;;;;7.30;4.43;;;9.40;99.90;;;;;;4996075;28;20206;-37
2022/04/14 04:21:38;;;;;;;9.23;4.90;;;9.50;99.90;;;;;;5013201;28;20222;-37
2022/04/14 04:24:05;;;;;;;12.83;6.57;;;9.60;99.90;;;;;;5013157;28;20191;-36
2022/04/14 04:26:31;;;;;;;12.57;10.17;;;9.60;99.90;;;;;;5013242;28;20218;-36
2022/04/14 04:28:56;;;;;;;11.53;7.30;;;9.60;99.90;;;;;;5005480;28;20220;-38
2022/04/14 04:31:22;;;;;;;10.73;6.83;;;9.50;99.90;;;;;;5016171;28;21021;-37
2022/04/14 04:33:51;;;;;;;10.87;5.43;;;9.50;99.90;;;;;;4999531;28;20179;-38
2022/04/14 04:36:20;;;;;;;11.33;5.60;;;9.50;99.90;;;;;;5016617;28;20175;-38
2022/04/14 04:38:46;;;;;;;7.83;4.73;;;9.60;99.90;;;;;;5016180;28;20174;-36
2022/04/14 04:41:12;;;;;;;8.27;4.77;;;9.60;99.90;;;;;;5015983;28;20178;-38
2022/04/14 04:43:38;;;;;;;9.23;4.50;;;9.60;99.90;;;;;;5033629;28;20205;-36
2022/04/14 04:46:04;;;;;;;11.50;4.77;;;9.60;99.90;;;;;;5033844;28;20185;-37
2022/04/14 04:48:30;;;;;;;9.03;5.50;;;9.60;99.90;;;;;;5015892;28;20178;-36
2022/04/14 04:50:56;;;;;;;9.63;5.93;;;9.60;99.90;;;;;;4999840;28;20295;-36
2022/04/14 04:53:22;;;;;;;11.47;5.50;;;9.60;99.90;;;;;;5015959;28;20610;-37
2022/04/14 04:55:48;;;;;;;9.33;4.87;;;9.60;99.90;;;;;;4999391;28;20237;-36
2022/04/14 04:58:14;;;;;;;9.33;5.20;;;9.60;99.90;;;;;;4999339;28;20277;-37
2022/04/14 05:00:41;;;;;;;9.27;5.37;;;9.60;99.90;;;;;;4983321;28;20187;-37
2022/04/14 05:03:10;;;;;;;10.63;4.97;;;9.60;99.90;;;;;;4995783;28;20183;-36
2022/04/14 05:05:37;;;;;;;10.90;4.87;;;9.60;99.90;;;;;;4979619;28;20234;-36
2022/04/14 05:08:05;;;;;;;11.37;5.37;;;9.50;99.90;;;;;;5012983;28;20180;-36
2022/04/14 05:10:32;;;;;;;9.43;4.43;;;9.40;99.90;;;;;;4979619;28;20210;-36
2022/04/14 05:12:59;;;;;;;10.43;4.57;;;9.50;99.90;;;;;;4989361;28;20179;-37
2022/04/14 05:15:25;;;;;;;8.37;4.20;;;9.50;99.90;;;;;;5014979;28;20195;-37
2022/04/14 05:17:51;;;;;;;10.33;4.60;;;9.40;99.90;;;;;;5015611;28;20183;-36
2022/04/14 05:20:17;;;;;;;9.27;4.87;;;9.30;99.90;;;;;;4998842;28;20190;-36
2022/04/14 05:22:43;;;;;;;7.60;4.47;;;9.30;99.90;;;;;;4999048;28;20285;-36
2022/04/14 05:25:09;;;;;;;10.53;4.60;;;9.30;99.90;;;;;;4999180;28;20288;-36
2022/04/14 05:27:35;;;;;;;8.43;4.23;;;9.30;99.90;;;;;;5015141;28;20183;-37
2022/04/14 05:30:03;;;;;;;8.60;4.87;;;9.30;99.90;;;;;;5014733;28;20202;-40
2022/04/14 05:32:28;;;;;;;8.73;4.87;;;9.30;99.90;;;;;;5015919;28;20558;-36
2022/04/14 05:34:55;;;;;;;7.50;4.77;;;9.30;99.90;;;;;;5015686;28;20226;-36
2022/04/14 05:37:21;;;;;;;7.63;4.67;;;9.30;99.90;;;;;;4998779;28;20218;-36
2022/04/14 05:39:47;;;;;;;9.30;4.83;;;9.20;99.90;;;;;;4994413;28;20187;-36
2022/04/14 05:42:13;;;;;;;12.23;4.93;;;9.20;99.90;;;;;;4996882;28;20183;-36
2022/04/14 05:44:39;;;;;;;8.57;5.23;;;9.30;99.90;;;;;;4996903;28;20206;-38
2022/04/14 05:47:05;;;;;;;6.53;4.57;;;9.50;99.90;;;;;;4996730;28;20281;-37
2022/04/14 05:49:30;;;;;;;13.07;4.87;;;9.70;99.90;;;;;;5012996;28;20217;-36
2022/04/14 05:51:56;;;;;;;11.70;4.90;;;9.90;99.90;;;;;;5012930;28;20285;-36
2022/04/14 05:54:22;;;;;;;14.33;4.87;;;10.00;99.90;;;;;;4996502;28;20226;-40
2022/04/14 05:56:48;;;;;;;8.30;5.00;;;10.10;99.90;;;;;;5012999;28;20233;-38
2022/04/14 05:59:16;;;;;;;7.47;4.63;;;10.20;99.90;;;;;;4997805;28;20198;-34
2022/04/14 06:01:47;;;;;;;12.97;6.00;;;10.30;99.90;;;;;;4998164;28;20312;-34
2022/04/14 06:04:13;;;;;;;11.30;5.73;;;10.40;99.90;;;;;;4998265;28;20252;-35
2022/04/14 06:06:39;;;;;;;9.20;5.07;;;10.50;99.90;;;;;;5014396;28;20560;-34
2022/04/14 06:09:05;;;;;;;11.03;5.03;;;10.60;99.90;;;;;;5014380;28;20210;-34
2022/04/14 06:11:31;;;;;;;12.30;5.77;;;10.80;99.90;;;;;;5014201;28;20191;-34
2022/04/14 06:13:57;;;;;;;14.47;5.23;;;10.90;99.90;;;;;;5014282;28;20182;-34
2022/04/14 06:16:23;;;;;;;8.37;5.30;;;11.10;99.90;;;;;;4997996;28;20202;-34
2022/04/14 06:18:49;;;;;;;8.23;5.50;;;11.20;99.90;;;;;;4997590;28;20317;-36
2022/04/14 06:21:14;;;;;;;11.30;5.80;;;11.40;99.90;;;;;;4992559;28;20175;-35
2022/04/14 06:23:40;;;;;;;11.80;5.53;;;11.50;99.90;;;;;;5010394;28;20312;-34
2022/04/14 06:26:06;;;;;;;9.33;5.73;;;11.70;99.90;;;;;;4994358;28;20214;-34
2022/04/14 06:28:34;;;;;;;10.27;5.60;;;11.80;99.90;;;;;;5013913;28;20190;-34
2022/04/14 06:31:01;;;;;;;10.03;5.27;;;11.90;99.90;;;;;;5031647;28;20204;-35
2022/04/14 06:33:30;;;;;;;10.57;5.93;;;12.00;99.90;;;;;;5014688;28;20178;-35
2022/04/14 06:35:59;;;;;;;8.63;5.23;;;12.10;99.90;;;;;;5033005;28;20206;-34
2022/04/14 06:38:27;;;;;;;9.80;5.70;;;12.20;99.90;;;;;;5014457;28;20186;-34
2022/04/14 06:40:54;;;;;;;7.60;5.20;;;12.20;99.90;;;;;;5012745;28;20188;-34
2022/04/14 06:43:20;;;;;;;9.43;5.37;;;12.20;99.90;;;;;;5013138;28;20211;-34
2022/04/14 06:45:50;;;;;;;9.23;5.20;;;12.30;99.90;;;;;;5012467;28;20206;-34
2022/04/14 06:48:17;;;;;;;9.53;5.77;;;12.40;99.90;;;;;;4996219;28;20596;-34
2022/04/14 06:50:43;;;;;;;10.37;5.43;;;12.50;99.90;;;;;;4996511;28;20208;-34
2022/04/14 06:53:09;;;;;;;9.10;5.37;;;12.60;99.90;;;;;;4993574;28;20192;-34
2022/04/14 06:55:37;;;;;;;9.27;5.17;;;12.60;99.90;;;;;;5010315;28;20232;-35
2022/04/14 06:58:03;;;;;;;7.70;4.97;;;12.80;99.90;;;;;;5013503;28;20173;-34
2022/04/14 07:00:30;;;;;;;9.83;5.63;;;12.80;99.90;;;;;;4996794;28;20179;-35
2022/04/14 07:02:57;;;;;;;6.43;4.70;;;12.90;99.90;;;;;;4995481;28;20199;-34
2022/04/14 07:05:23;;;;;;;7.40;4.90;;;13.00;99.90;;;;;;5013385;28;20204;-35
2022/04/14 07:07:50;;;;;;;9.17;5.00;;;13.10;99.90;;;;;;4991872;28;20188;-35
2022/04/14 07:10:18;;;;;;;9.37;5.23;;;13.20;99.90;;;;;;5001533;28;20291;-34
2022/04/14 07:12:45;;;;;;;10.63;5.20;;;13.30;99.90;;;;;;5021292;28;20184;-34
2022/04/14 07:15:12;;;;;;;9.13;5.17;;;13.40;99.90;;;;;;5031138;28;20282;-34
2022/04/14 07:17:38;;;;;;;8.23;4.87;;;13.50;99.90;;;;;;5004513;28;20179;-34
2022/04/14 07:20:05;;;;;;;12.17;4.67;;;13.60;99.90;;;;;;5012837;28;20278;-35
2022/04/14 07:22:49;;;;;;;8.03;4.53;;;13.60;99.90;;;;;;5030719;28;20548;-34
2022/04/14 07:25:15;;;;;;;8.00;4.40;;;13.70;99.90;;;;;;5013193;28;20203;-34
2022/04/14 07:27:42;;;;;;;13.97;4.97;;;13.80;99.90;;;;;;5012919;28;20189;-34
2022/04/14 07:30:09;;;;;;;12.10;5.17;;;13.90;99.90;;;;;;4998189;28;20241;-34
2022/04/14 07:32:40;;;;;;;11.23;5.40;;;14.00;99.90;;;;;;5000822;28;20213;-34
2022/04/14 07:35:06;;;;;;;14.27;5.23;;;14.10;99.90;;;;;;5016603;28;20208;-35
2022/04/14 07:37:33;;;;;;;16.23;5.53;;;14.20;99.90;;;;;;5007147;28;20182;-35
2022/04/14 07:39:59;;;;;;;9.93;5.13;;;14.30;99.90;;;;;;5016943;28;20214;-34
2022/04/14 07:42:40;;;;;;;10.53;5.50;;;14.30;99.90;;;;;;5017224;28;20182;-35
2022/04/14 07:45:08;;;;;;;11.37;5.57;;;14.50;99.90;;;;;;5016805;28;20228;-34
2022/04/14 07:47:35;;;;;;;13.27;5.70;;;14.60;99.90;;;;;;4999356;28;20182;-34
2022/04/14 07:50:01;;;;;;;11.57;5.90;;;14.80;99.90;;;;;;5016226;28;20572;-34
2022/04/14 07:52:27;;;;;;;11.73;6.83;;;14.90;99.90;;;;;;5017083;28;20178;-34
2022/04/14 07:54:53;;;;;;;12.40;6.60;;;15.10;99.90;;;;;;5000660;28;20301;-34
2022/04/14 07:57:19;;;;;;;9.73;6.90;;;15.20;99.90;;;;;;5016936;28;20274;-35
2022/04/14 07:59:45;;;;;;;14.10;8.80;;;15.40;99.90;;;;;;5000235;28;20186;-34
2022/04/14 08:02:11;;;;;;;13.77;8.27;;;15.60;99.90;;;;;;4999331;28;20178;-34
2022/04/14 08:04:38;;;;;;;11.83;7.73;;;15.70;99.90;;;;;;4997118;28;20205;-35
2022/04/14 08:07:05;;;;;;;13.03;7.83;;;15.80;99.90;;;;;;4995610;28;20171;-34
2022/04/14 08:09:32;;;;;;;12.10;8.43;;;16.00;99.90;;;;;;4993164;28;20264;-34
2022/04/14 08:11:58;;;;;;;14.03;7.90;;;16.10;99.90;;;;;;5017999;28;20206;-37
2022/04/14 08:14:24;;;;;;;12.97;8.87;;;16.20;99.90;;;;;;4997666;28;20214;-34
2022/04/14 08:16:51;;;;;;;13.57;8.90;;;16.30;99.90;;;;;;4999225;28;20643;-36
2022/04/14 08:19:17;;;;;;;12.93;7.73;;;16.40;99.90;;;;;;5007962;28;20179;-34
2022/04/14 08:21:45;;;;;;;13.53;7.93;;;16.50;99.90;;;;;;5015912;28;20186;-35
2022/04/14 08:24:10;;;;;;;12.83;8.50;;;16.60;99.90;;;;;;4997458;28;20226;-34
2022/04/14 08:26:36;;;;;;;15.07;9.23;;;16.80;99.90;;;;;;4999709;28;20221;-36
2022/04/14 08:29:03;;;;;;;14.37;9.50;;;17.00;99.90;;;;;;4999185;28;20183;-36
2022/04/14 08:31:29;;;;;;;16.50;10.97;;;17.10;99.90;;;;;;4995368;28;20204;-38
2022/04/14 08:33:55;;;;;;;13.85;10.05;;;17.30;99.90;;;;;;5015883;28;20170;-35
2022/04/14 08:36:21;;;;;;;15.32;11.00;;;17.40;99.90;;;;;;4999404;28;20182;-35
2022/04/14 08:38:50;;;;;;;16.08;10.98;;;17.50;99.90;;;;;;5015376;28;20277;-34
2022/04/14 08:41:21;;;;;;;16.75;11.15;;;17.70;99.90;;;;;;5004228;28;20170;-35
2022/04/14 08:43:47;;;;;;;19.25;14.20;;;17.90;99.90;;;;;;5017507;28;20174;-35
2022/04/14 08:46:15;;;;;;;18.52;13.88;;;18.00;99.90;;;;;;5015749;28;20192;-35
2022/04/14 08:48:42;;;;;;;19.88;14.18;;;18.00;99.90;;;;;;4999949;28;20221;-35
2022/04/14 08:51:10;;;;;;;20.58;14.30;;;18.00;99.90;;;;;;5015742;28;20211;-35
2022/04/14 08:53:38;;;;;;;18.70;14.45;;;18.10;99.90;;;;;;5019810;28;20223;-35
2022/04/14 08:56:06;;;;;;;21.48;14.20;;;18.10;99.90;;;;;;5062128;22;20225;-33
2022/04/14 08:58:32;;;;;;;18.25;15.23;;;18.20;99.90;;;;;;5003653;28;20242;-32
2022/04/14 09:01:00;;;;;;;21.92;15.65;;;18.30;99.90;;;;;;5052088;28;20174;-32
2022/04/14 09:03:28;;;;;;;17.98;14.20;;;18.40;99.90;;;;;;5052111;28;20277;-32
2022/04/14 09:05:55;;;;;;;18.85;14.55;;;18.60;99.90;;;;;;5053276;28;20236;-32
2022/04/14 09:08:24;;;;;;;23.33;15.63;;;18.80;99.90;;;;;;5035337;28;20433;-32
2022/04/14 09:10:50;;;;;;;18.80;13.95;;;18.80;99.90;;;;;;5007559;28;20202;-32
2022/04/14 09:13:18;;;;;;;18.85;15.00;;;18.90;99.90;;;;;;4992713;28;20175;-33
2022/04/14 09:15:44;;;;;;;18.40;14.30;;;19.10;99.90;;;;;;5012271;28;20250;-33
2022/04/14 09:18:11;;;;;;;16.50;13.75;;;19.30;99.90;;;;;;5011669;28;20175;-31
2022/04/14 09:20:41;;;;;;;19.75;15.23;;;19.50;99.90;;;;;;5014683;28;20190;-32
2022/04/14 09:23:20;;;;;;;22.98;16.27;;;19.70;99.90;;;;;;4996637;28;20206;-32
2022/04/14 09:25:53;;;;;;;20.83;14.07;;;19.70;99.90;;;;;;5010996;28;20289;-33
2022/04/14 09:28:21;;;;;;;20.95;16.13;;;19.80;99.90;;;;;;5021168;28;20186;-32
2022/04/14 09:31:00;;;;;;;25.50;16.35;;;19.70;99.90;;;;;;5034821;28;20228;-32
2022/04/14 09:33:27;;;;;;;18.60;15.25;;;19.70;99.90;;;;;;5034874;28;20208;-32
2022/04/14 09:36:24;;;;;;;18.00;15.73;;;19.70;99.90;;;;;;5020524;28;20285;-32
2022/04/14 09:38:59;;;;;;;18.85;13.15;;;19.60;99.90;;;;;;4982829;28;20209;-32
2022/04/14 09:41:42;;;;;;;15.02;12.38;;;19.80;99.90;;;;;;5010767;28;20186;-32
2022/04/14 09:44:13;;;;;;;21.80;15.98;;;20.00;99.90;;;;;;5023038;28;20277;-32
2022/04/14 09:46:45;;;;;;;19.63;15.73;;;19.90;99.90;;;;;;5012722;28;20195;-31
2022/04/14 09:49:16;;;;;;;22.98;16.50;;;19.70;99.90;;;;;;5013051;28;20175;-32
2022/04/14 09:51:43;;;;;;;19.02;13.20;;;19.70;99.90;;;;;;4992212;28;20193;-32
2022/04/14 09:54:26;;;;;;;21.00;15.88;;;19.80;99.90;;;;;;5011362;28;20175;-32
2022/04/14 09:56:55;;;;;;;20.85;16.42;;;19.90;99.90;;;;;;5005140;28;20182;-32
2022/04/14 09:59:27;;;;;;;23.60;17.33;;;20.10;99.90;;;;;;5014683;28;20272;-32
2022/04/14 10:02:16;;;;;;;21.17;16.35;;;20.30;99.90;;;;;;5000182;28;20175;-32
2022/04/14 10:04:43;;;;;;;17.25;13.10;;;20.10;99.90;;;;;;4994374;28;20299;-32
2022/04/14 10:07:15;;;;;;;19.75;15.02;;;20.20;99.90;;;;;;4994610;28;20175;-32
2022/04/14 10:09:48;;;;;;;23.40;16.48;;;20.40;99.90;;;;;;4994512;28;20272;-32
2022/04/14 10:12:19;;;;;;;19.92;15.45;;;20.70;99.90;;;;;;4994884;28;20222;-32
2022/04/14 10:15:07;;;;;;;20.98;14.88;;;20.70;99.90;;;;;;4994911;28;20279;-32
2022/04/14 10:17:38;;;;;;;20.95;14.90;;;20.90;99.90;;;;;;5010791;28;20253;-32
2022/04/14 10:20:08;;;;;;;20.45;14.38;;;20.80;99.90;;;;;;5013884;28;20183;-32
2022/04/14 10:22:35;;;;;;;17.63;12.50;;;20.80;99.90;;;;;;5013917;28;20206;-33
2022/04/14 10:25:02;;;;;;;19.10;14.20;;;21.00;99.90;;;;;;4999154;28;20209;-32
2022/04/14 10:27:30;;;;;;;15.38;12.95;;;21.10;99.90;;;;;;5019088;22;20214;-38
2022/04/14 10:29:57;;;;;;;14.70;11.55;;;21.10;99.90;;;;;;5009887;28;20263;-36
2022/04/14 10:32:26;;;;;;;15.13;10.75;;;21.20;99.90;;;;;;4995767;28;20203;-38
2022/04/14 10:34:52;;;;;;;18.10;12.45;;;21.30;99.90;;;;;;5010538;28;20187;-35
2022/04/14 10:37:46;;;;;;;12.75;9.98;;;21.40;99.90;;;;;;4996313;28;20180;-38
2022/04/14 10:40:13;;;;;;;14.50;10.88;;;21.60;99.90;;;;;;4992004;28;20274;-38
2022/04/14 10:42:47;;;;;;;15.20;11.20;;;21.60;99.90;;;;;;4994444;28;20183;-39
2022/04/14 10:45:18;;;;;;;10.43;8.65;;;21.50;99.90;;;;;;4993977;28;20231;-40
2022/04/14 10:47:50;;;;;;;17.58;11.10;;;21.70;99.90;;;;;;4993939;28;20207;-39
2022/04/14 10:50:24;;;;;;;17.52;11.25;;;21.80;99.90;;;;;;4994015;28;20337;-38
2022/04/14 10:53:12;;;;;;;10.85;8.75;;;21.80;99.90;;;;;;4977823;28;20190;-38
2022/04/14 10:55:46;;;;;;;12.25;9.07;;;22.00;99.90;;;;;;5011708;28;20171;-39
2022/04/14 10:58:36;;;;;;;13.60;9.18;;;22.10;99.90;;;;;;4971880;28;20203;-38
2022/04/14 11:01:02;;;;;;;11.00;7.47;;;22.30;99.90;;;;;;5008080;28;20199;-40
2022/04/14 11:03:52;;;;;;;14.02;7.82;;;22.40;99.90;;;;;;4989878;28;20207;-40
2022/04/14 11:06:40;;;;;;;12.02;8.23;;;22.10;99.90;;;;;;4988232;28;20176;-39
2022/04/14 11:09:07;;;;;;;13.85;8.27;;;22.00;99.90;;;;;;5016991;28;20199;-41
2022/04/14 11:11:58;;;;;;;12.23;8.50;;;21.90;99.90;;;;;;4969818;28;20255;-43
2022/04/14 11:14:25;;;;;;;12.00;7.70;;;21.90;99.90;;;;;;5008295;28;20178;-40
2022/04/14 11:16:52;;;;;;;14.55;8.45;;;21.90;99.90;;;;;;4975682;28;20258;-40
2022/04/14 11:19:22;;;;;;;8.00;6.25;;;22.10;99.90;;;;;;4981852;28;20208;-41
2022/04/14 11:21:58;;;;;;;12.13;7.57;;;22.40;99.90;;;;;;5004310;28;20286;-40
2022/04/14 11:24:40;;;;;;;10.73;7.18;;;22.60;99.90;;;;;;4997825;28;20179;-44
2022/04/14 11:27:22;;;;;;;11.77;6.78;;;22.50;99.90;;;;;;4977438;28;20172;-40
2022/04/14 11:29:51;;;;;;;12.63;7.85;;;22.60;99.90;;;;;;4976430;28;20230;-38
2022/04/14 11:32:39;;;;;;;9.98;5.78;;;22.80;99.90;;;;;;4977104;28;20175;-38
2022/04/14 11:35:16;;;;;;;10.57;6.00;;;23.10;99.90;;;;;;4977508;28;20183;-41
2022/04/14 11:37:43;;;;;;;10.93;5.53;;;23.20;99.90;;;;;;4993897;28;20193;-40
2022/04/14 11:40:22;;;;;;;12.35;7.10;;;23.30;99.90;;;;;;4990659;28;20184;-40
2022/04/14 11:42:50;;;;;;;11.55;7.20;;;22.60;99.90;;;;;;4989313;28;20217;-39
2022/04/14 11:45:29;;;;;;;13.15;7.18;;;22.10;99.90;;;;;;4993224;28;20323;-39
2022/04/14 11:48:05;;;;;;;10.23;5.55;;;22.20;99.90;;;;;;4975885;28;20203;-40
2022/04/14 11:50:33;;;;;;;9.07;5.40;;;22.50;99.90;;;;;;4975465;28;20321;-42
2022/04/14 11:53:02;;;;;;;8.32;6.57;;;22.70;99.90;;;;;;4974392;28;20234;-41
2022/04/14 11:55:42;;;;;;;11.13;6.53;;;23.00;99.90;;;;;;4993286;28;20206;-39
2022/04/14 11:58:17;;;;;;;11.88;6.30;;;22.80;99.90;;;;;;4975277;28;20609;-40
2022/04/14 12:00:50;;;;;;;12.07;6.68;;;22.70;99.90;;;;;;4976586;28;20210;-40
2022/04/14 12:03:30;;;;;;;11.40;6.75;;;22.60;99.90;;;;;;4972170;28;20187;-39
2022/04/14 12:06:02;;;;;;;10.95;6.40;;;22.10;99.90;;;;;;4973962;28;20187;-42
2022/04/14 12:08:28;;;;;;;9.90;6.63;;;22.40;99.90;;;;;;4967473;28;20195;-40
2022/04/14 12:10:54;;;;;;;12.52;6.63;;;22.20;99.90;;;;;;4976432;28;20233;-45
2022/04/14 12:13:21;;;;;;;8.15;5.40;;;22.20;99.90;;;;;;4976966;28;20203;-41
2022/04/14 12:16:04;;;;;;;9.05;6.18;;;22.70;99.90;;;;;;4977390;28;20183;-40
2022/04/14 12:18:30;;;;;;;13.40;7.85;;;22.90;99.90;;;;;;4996935;28;20195;-37
2022/04/14 12:20:56;;;;;;;11.80;7.05;;;22.30;99.90;;;;;;4980202;28;20179;-38
2022/04/14 12:23:22;;;;;;;9.27;6.35;;;22.10;99.90;;;;;;4991324;28;20202;-39
2022/04/14 12:25:49;;;;;;;11.45;5.90;;;22.50;99.90;;;;;;4981100;28;20186;-39
2022/04/14 12:28:15;;;;;;;10.43;6.00;;;22.60;99.90;;;;;;4997161;28;20215;-39
2022/04/14 12:30:41;;;;;;;9.75;6.53;;;22.60;99.90;;;;;;4980594;28;20290;-39
2022/04/14 12:33:08;;;;;;;13.95;5.85;;;22.70;99.90;;;;;;4996360;28;20247;-38
2022/04/14 12:35:36;;;;;;;8.07;6.10;;;22.50;99.90;;;;;;4997444;28;20180;-38
2022/04/14 12:38:19;;;;;;;13.05;8.43;;;22.60;99.90;;;;;;4997227;28;20204;-38
2022/04/14 12:40:53;;;;;;;12.32;6.75;;;22.50;99.90;;;;;;4997061;28;20198;-39
2022/04/14 12:43:34;;;;;;;10.85;7.20;;;22.50;99.90;;;;;;4996407;28;20194;-39
2022/04/14 12:46:01;;;;;;;11.05;7.95;;;22.50;99.90;;;;;;4994989;28;20175;-40
2022/04/14 12:48:36;;;;;;;10.40;7.72;;;22.70;99.90;;;;;;4996429;28;20249;-38